Main page
METAR-TAF:

METAR-TAF

Airports :

Léopold Sédar Senghor International Airport

Dakar, Senegal

latitude: 14-44N, longitude: 017-30W, elevation: 27 m

Current weather observation

The report was made 50 minutes ago, at 20:00 UTC
Calm wind
Temperature 27°C
Humidity 89%
Pressure 1012 hPa
Visibility: 8000 m
Few clouds at a height of 1300 ft

METAR: GOOY 282000Z 00000KT 8000 FEW013 27/25 Q1012

Time: 20:50 (20:50 UTC)

Forecast

The report was made 3 hours and 50 minutes ago, at 17:00 UTC
Forecast valid from 28 at 18 UTC to 29 at 24 UTC
Wind 8 kt from the West
Visibility: 8000 m
Scattered clouds at a height of 1200 ft

TAF: GOOY 281700Z 2818/2924 26008KT 8000 SCT012

Weather observations and forecasts of more than 4000 airports (METAR and TAF reports).

The available stations are represented by yellow and red dots on the map.

Hover mouse over dot to see the name of the station.

Then click to see weather observations and forecasts.

To change the map : click on the green buttons with a black cross to zoom in, on the green button with a dash to zoom out, or on the green arrows for adjacent maps.


METAR-TAF: